Time;durP1;ratioP1;P1;durP2;ratioP2;P2;SDS_P1;SDS_P2;PMS_P1;PMS_P2;Temp;Humidity;BMP_temperature;BMP_pressure;BME280_temperature;BME280_humidity;BME280_pressure;Samples;Min_cycle;Max_cycle;Signal;HPM_P1;HPM_P2
2023/11/05 00:00:58;;;;;;;0.40;0.40;;;;;;;7.83;100.00;95968.16;5105847;28;20101;-62
2023/11/05 00:03:24;;;;;;;0.32;0.32;;;;;;;7.97;100.00;95977.38;5105833;28;20048;-61
2023/11/05 00:05:51;;;;;;;0.40;0.40;;;;;;;7.66;100.00;95893.22;5105847;28;20583;-62
2023/11/05 00:08:18;;;;;;;0.40;0.40;;;;;;;8.26;100.00;95978.47;5105244;27;20050;-62
2023/11/05 00:10:44;;;;;;;0.40;0.40;;;;;;;8.37;100.00;95971.06;5121243;27;20052;-61
2023/11/05 00:13:11;;;;;;;0.40;0.40;;;;;;;8.28;100.00;95963.13;5105618;28;20067;-62
2023/11/05 00:15:38;;;;;;;0.40;0.40;;;;;;;8.43;100.00;95992.41;5105502;28;20141;-61
2023/11/05 00:18:05;;;;;;;0.40;0.40;;;;;;;8.21;100.00;95949.22;5103695;28;20159;-61
2023/11/05 00:20:32;;;;;;;0.40;0.40;;;;;;;8.44;100.00;95982.16;5105282;28;20049;-61
2023/11/05 00:22:59;;;;;;;0.40;0.40;;;;;;;8.25;100.00;95994.22;5104093;28;20043;-61
2023/11/05 00:25:25;;;;;;;0.40;0.40;;;;;;;8.62;100.00;96008.72;5086244;28;20044;-63
2023/11/05 00:27:52;;;;;;;0.40;0.40;;;;;;;8.64;100.00;96003.63;5084987;28;20117;-62
2023/11/05 00:30:18;;;;;;;0.40;0.40;;;;;;;8.61;100.00;95998.06;5084971;28;20051;-62
2023/11/05 00:32:45;;;;;;;0.40;0.40;;;;;;;8.63;100.00;96006.75;5084873;28;20048;-62
2023/11/05 00:35:12;;;;;;;0.40;0.40;;;;;;;8.62;100.00;96003.19;5082701;28;20139;-61
2023/11/05 00:37:39;;;;;;;0.40;0.40;;;;;;;8.53;100.00;95979.88;5084830;28;20048;-61
2023/11/05 00:40:06;;;;;;;0.40;0.40;;;;;;;8.83;100.00;96022.69;5084669;28;20075;-62
2023/11/05 00:42:33;;;;;;;0.30;0.30;;;;;;;8.75;100.00;96017.50;5085011;28;20044;-62
2023/11/05 00:45:00;;;;;;;0.40;0.40;;;;;;;8.77;100.00;96020.66;5084557;28;20517;-61
2023/11/05 00:47:26;;;;;;;0.40;0.40;;;;;;;8.78;100.00;96013.97;5084123;28;20530;-62
2023/11/05 00:49:53;;;;;;;0.45;0.45;;;;;;;8.83;100.00;96005.31;5084518;28;20048;-62
2023/11/05 00:52:20;;;;;;;0.40;0.40;;;;;;;8.85;100.00;96019.53;5083060;28;20052;-61
2023/11/05 00:54:46;;;;;;;0.50;0.50;;;;;;;8.84;100.00;96017.94;5084235;28;20044;-61
2023/11/05 00:57:13;;;;;;;0.40;0.40;;;;;;;8.55;100.00;95989.34;5089141;28;20058;-61
2023/11/05 00:59:40;;;;;;;0.40;0.40;;;;;;;8.83;100.00;96032.94;5104391;28;20065;-62
2023/11/05 01:02:07;;;;;;;0.40;0.40;;;;;;;8.79;100.00;96029.34;5104741;28;20050;-61
2023/11/05 01:04:33;;;;;;;0.40;0.40;;;;;;;8.70;100.00;96017.84;5103345;28;20483;-61
2023/11/05 01:07:00;;;;;;;0.40;0.40;;;;;;;8.65;100.00;96020.94;5104665;28;20511;-61
2023/11/05 01:09:27;;;;;;;0.40;0.40;;;;;;;7.80;100.00;95968.94;5104293;28;20124;-63
2023/11/05 01:11:54;;;;;;;0.40;0.40;;;;;;;7.64;100.00;96021.53;5104782;28;20052;-61
2023/11/05 01:14:20;;;;;;;0.40;0.40;;;;;;;7.82;100.00;96021.72;5103207;28;20050;-61
2023/11/05 01:16:47;;;;;;;0.40;0.40;;;;;;;7.89;100.00;96016.31;5104733;28;20054;-62
2023/11/05 01:19:15;;;;;;;0.40;0.40;;;;;;;7.92;100.00;96007.28;5103370;28;20048;-61
2023/11/05 01:21:42;;;;;;;0.40;0.40;;;;;;;8.12;100.00;96030.72;5104080;28;20093;-62
2023/11/05 01:24:09;;;;;;;0.40;0.40;;;;;;;8.06;100.00;96037.75;5104641;28;20043;-61
2023/11/05 01:26:36;;;;;;;0.40;0.40;;;;;;;8.13;100.00;96033.09;5102815;28;20089;-61
2023/11/05 01:29:03;;;;;;;0.40;0.40;;;;;;;8.16;100.00;96048.06;5104230;28;20131;-63
2023/11/05 01:31:30;;;;;;;0.40;0.40;;;;;;;7.45;100.00;95915.03;5104184;28;20043;-61
2023/11/05 01:33:56;;;;;;;0.40;0.40;;;;;;;8.13;100.00;96010.22;5104132;28;20048;-61
2023/11/05 01:36:23;;;;;;;0.40;0.40;;;;;;;8.24;100.00;96022.97;5103878;28;20158;-62
2023/11/05 01:38:50;;;;;;;0.40;0.40;;;;;;;8.07;100.00;95984.97;5104357;28;20070;-62
2023/11/05 01:41:16;;;;;;;0.40;0.40;;;;;;;7.88;100.00;95954.84;5104313;28;20510;-61
2023/11/05 01:43:43;;;;;;;0.40;0.40;;;;;;;8.20;100.00;96021.34;5102654;28;20566;-61
2023/11/05 01:46:10;;;;;;;0.40;0.40;;;;;;;7.91;100.00;95980.84;5104249;28;20047;-61
2023/11/05 01:48:37;;;;;;;0.40;0.40;;;;;;;8.12;100.00;96016.91;5102659;28;20061;-61
2023/11/05 01:51:12;;;;;;;0.40;0.40;;;;;;;7.96;100.00;96032.91;5104655;28;20055;-62
2023/11/05 01:53:41;;;;;;;0.40;0.40;;;;;;;7.90;100.00;96040.72;5104223;28;20086;-62
2023/11/05 01:56:08;;;;;;;0.40;0.40;;;;;;;7.92;100.00;96012.78;5104130;28;20433;-62
2023/11/05 01:58:37;;;;;;;0.40;0.40;;;;;;;7.94;100.00;96030.53;5104126;28;20044;-62
2023/11/05 02:01:06;;;;;;;0.40;0.40;;;;;;;8.04;100.00;96034.56;5104384;28;20059;-61
2023/11/05 02:03:32;;;;;;;0.40;0.40;;;;;;;8.12;100.00;96030.72;5103921;28;20067;-61
2023/11/05 02:05:59;;;;;;;0.40;0.40;;;;;;;7.94;100.00;96019.50;5104084;28;20130;-62
2023/11/05 02:08:26;;;;;;;0.40;0.40;;;;;;;8.01;100.00;96007.75;5104208;28;20051;-63
2023/11/05 02:10:53;;;;;;;0.40;0.40;;;;;;;7.95;100.00;96009.28;5102453;28;20149;-62
2023/11/05 02:13:21;;;;;;;0.40;0.40;;;;;;;7.98;100.00;96020.34;5102371;28;20146;-63
2023/11/05 02:15:48;;;;;;;0.40;0.40;;;;;;;7.93;100.00;96017.13;5104112;28;20083;-61
2023/11/05 02:18:15;;;;;;;0.40;0.40;;;;;;;7.65;100.00;95981.75;5103912;28;20059;-61
2023/11/05 02:20:42;;;;;;;0.40;0.40;;;;;;;7.95;100.00;96023.81;5102585;28;20060;-61
2023/11/05 02:23:16;;;;;;;0.40;0.40;;;;;;;7.93;100.00;96017.91;5104358;28;20182;-61
2023/11/05 02:25:43;;;;;;;0.40;0.40;;;;;;;7.89;100.00;96032.84;5102023;28;20077;-61
2023/11/05 02:28:09;;;;;;;0.40;0.40;;;;;;;7.83;100.00;96034.31;5103299;28;20426;-61
2023/11/05 02:30:36;;;;;;;0.40;0.40;;;;;;;7.80;100.00;96026.81;5103779;28;20148;-63
2023/11/05 02:33:03;;;;;;;0.40;0.40;;;;;;;7.63;100.00;95987.66;5105421;28;20055;-61
2023/11/05 02:35:30;;;;;;;0.40;0.40;;;;;;;7.90;100.00;96018.69;5107183;27;20537;-61
2023/11/05 02:37:56;;;;;;;0.40;0.40;;;;;;;7.94;100.00;96029.72;5107335;28;21524;-61
2023/11/05 02:40:23;;;;;;;0.40;0.40;;;;;;;7.98;100.00;96019.53;5107480;28;20052;-62
2023/11/05 02:42:49;;;;;;;0.40;0.40;;;;;;;8.01;100.00;96025.09;5106291;28;20532;-61
2023/11/05 02:45:17;;;;;;;0.40;0.40;;;;;;;7.88;100.00;96006.44;5107332;27;20131;-62
2023/11/05 02:47:43;;;;;;;0.40;0.40;;;;;;;8.03;100.00;96033.75;5105941;28;20047;-61
2023/11/05 02:50:10;;;;;;;0.40;0.40;;;;;;;8.04;100.00;96040.06;5107144;28;20728;-61
2023/11/05 02:52:37;;;;;;;0.40;0.40;;;;;;;7.71;100.00;96033.41;5105880;28;20077;-61
2023/11/05 02:55:04;;;;;;;0.40;0.40;;;;;;;7.88;100.00;96058.81;5106876;28;20582;-61
2023/11/05 02:57:31;;;;;;;0.40;0.40;;;;;;;7.93;100.00;96072.25;5106988;28;20051;-62
2023/11/05 02:59:57;;;;;;;0.40;0.40;;;;;;;7.98;100.00;96074.69;5105228;28;20497;-61
2023/11/05 03:02:25;;;;;;;0.40;0.40;;;;;;;7.94;100.00;96091.19;5107016;28;20043;-62
2023/11/05 03:04:59;;;;;;;0.40;0.40;;;;;;;7.74;100.00;96079.50;5105742;28;20063;-61
2023/11/05 03:07:25;;;;;;;0.40;0.40;;;;;;;7.80;100.00;96095.72;5105746;28;20055;-61
2023/11/05 03:09:52;;;;;;;0.40;0.40;;;;;;;7.61;100.00;96115.97;5106713;28;20052;-62
2023/11/05 03:12:19;;;;;;;0.40;0.40;;;;;;;7.34;100.00;96059.31;5105285;28;20159;-61
2023/11/05 03:14:46;;;;;;;0.40;0.40;;;;;;;7.61;100.00;96100.25;5107005;28;20048;-60
2023/11/05 03:17:12;;;;;;;0.40;0.40;;;;;;;7.50;100.00;96107.56;5105437;28;20524;-61
2023/11/05 03:19:39;;;;;;;0.40;0.40;;;;;;;7.33;100.00;96110.84;5106867;28;20063;-61
2023/11/05 03:22:06;;;;;;;0.40;0.40;;;;;;;7.29;100.00;96115.53;5105141;28;20067;-62
2023/11/05 03:24:33;;;;;;;0.40;0.40;;;;;;;6.96;100.00;96046.59;5074304;28;20173;-61
2023/11/05 03:26:59;;;;;;;0.30;0.30;;;;;;;7.35;100.00;96105.78;5065627;28;20044;-62
2023/11/05 03:29:26;;;;;;;0.30;0.30;;;;;;;7.43;100.00;96104.72;5064482;28;20053;-62
2023/11/05 03:31:53;;;;;;;0.40;0.40;;;;;;;7.38;100.00;96096.75;5065859;28;20527;-62
2023/11/05 03:34:21;;;;;;;0.40;0.40;;;;;;;7.46;100.00;96109.47;5065801;28;20052;-62
2023/11/05 03:36:48;;;;;;;0.40;0.40;;;;;;;7.22;100.00;96109.91;5065326;28;20056;-62
2023/11/05 03:39:15;;;;;;;0.40;0.40;;;;;;;7.24;100.00;96113.09;5063886;28;20139;-61
2023/11/05 03:41:41;;;;;;;0.40;0.40;;;;;;;7.19;100.00;96121.66;5065400;28;20151;-61
2023/11/05 03:44:09;;;;;;;0.40;0.40;;;;;;;7.28;100.00;96116.72;5063987;28;20049;-61
2023/11/05 03:46:39;;;;;;;0.40;0.40;;;;;;;7.31;100.00;96117.91;5065263;28;20129;-61
2023/11/05 03:49:06;;;;;;;0.38;0.38;;;;;;;7.32;100.00;96103.75;5065125;28;20132;-64
2023/11/05 03:51:33;;;;;;;0.40;0.40;;;;;;;6.92;100.00;96084.31;5065262;28;20442;-61
2023/11/05 03:54:00;;;;;;;0.30;0.30;;;;;;;7.12;100.00;96099.56;5065419;28;20048;-61
2023/11/05 03:56:26;;;;;;;0.35;0.35;;;;;;;7.26;100.00;96088.72;5063484;28;20044;-62
2023/11/05 03:58:53;;;;;;;0.40;0.40;;;;;;;7.14;100.00;96072.44;5065205;28;20052;-61
2023/11/05 04:01:20;;;;;;;0.40;0.40;;;;;;;6.93;100.00;96028.09;5065671;28;20079;-61
2023/11/05 04:03:47;;;;;;;0.40;0.40;;;;;;;7.33;100.00;96094.31;5065062;28;20508;-62
2023/11/05 04:06:16;;;;;;;0.30;0.30;;;;;;;7.31;100.00;96071.88;5063657;28;20053;-61
2023/11/05 04:08:46;;;;;;;0.40;0.40;;;;;;;7.42;100.00;96092.13;5069872;28;20113;-61
2023/11/05 04:11:14;;;;;;;0.40;0.40;;;;;;;7.50;100.00;96093.00;5063704;28;20076;-62
2023/11/05 04:13:45;;;;;;;0.40;0.40;;;;;;;7.42;100.00;96105.09;5064913;28;20138;-61
2023/11/05 04:16:12;;;;;;;0.40;0.40;;;;;;;6.91;100.00;96076.38;5065462;28;20093;-63
2023/11/05 04:18:41;;;;;;;0.40;0.40;;;;;;;7.25;100.00;96114.69;5065142;28;20540;-61
2023/11/05 04:21:08;;;;;;;0.30;0.30;;;;;;;7.02;100.00;96089.16;5064712;28;20044;-62
2023/11/05 04:23:34;;;;;;;0.38;0.38;;;;;;;7.24;100.00;96113.09;5064853;28;20052;-61
2023/11/05 04:26:03;;;;;;;0.40;0.40;;;;;;;6.90;100.00;96075.63;5046213;28;20132;-61
2023/11/05 04:28:30;;;;;;;0.40;0.40;;;;;;;7.27;100.00;96117.84;5044368;28;20053;-62
2023/11/05 04:30:57;;;;;;;0.40;0.40;;;;;;;7.22;100.00;96114.63;5043354;28;20160;-61
2023/11/05 04:33:23;;;;;;;0.40;0.40;;;;;;;7.07;100.00;96108.13;5044600;28;20439;-62
2023/11/05 04:35:50;;;;;;;0.38;0.38;;;;;;;7.03;100.00;96112.78;5043774;28;20428;-61
2023/11/05 04:38:17;;;;;;;0.40;0.40;;;;;;;7.02;100.00;96111.19;5044277;28;20055;-61
2023/11/05 04:40:44;;;;;;;0.40;0.40;;;;;;;6.97;100.00;96103.22;5044429;28;20078;-62
2023/11/05 04:43:10;;;;;;;0.40;0.40;;;;;;;6.89;100.00;96104.28;5043144;28;20068;-62
2023/11/05 04:45:38;;;;;;;0.30;0.30;;;;;;;6.97;100.00;96107.97;5044699;28;20075;-61
2023/11/05 04:48:05;;;;;;;0.40;0.40;;;;;;;6.70;100.00;96074.09;5042981;28;20063;-61
2023/11/05 04:50:32;;;;;;;0.40;0.40;;;;;;;6.98;100.00;96110.34;5044489;28;20068;-61
2023/11/05 04:52:59;;;;;;;0.30;0.30;;;;;;;6.96;100.00;96123.69;5044867;28;20236;-61
2023/11/05 04:55:25;;;;;;;0.40;0.40;;;;;;;7.00;100.00;96130.03;5044173;28;20052;-61
2023/11/05 04:57:52;;;;;;;0.40;0.40;;;;;;;7.17;100.00;96128.72;5044264;28;20428;-61
2023/11/05 05:00:19;;;;;;;0.35;0.35;;;;;;;7.11;100.00;96130.97;5043480;28;20436;-63
2023/11/05 05:02:46;;;;;;;0.40;0.40;;;;;;;6.49;100.00;96053.72;5043952;28;20141;-62
2023/11/05 05:05:14;;;;;;;0.40;0.40;;;;;;;7.14;100.00;96145.97;5044256;28;20497;-62
2023/11/05 05:07:41;;;;;;;0.40;0.40;;;;;;;7.19;100.00;96143.69;5042839;28;20118;-62
2023/11/05 05:10:08;;;;;;;0.30;0.30;;;;;;;7.14;100.00;96134.97;5043797;28;20057;-62
2023/11/05 05:12:35;;;;;;;0.30;0.30;;;;;;;7.20;100.00;96150.81;5042754;28;20059;-62
2023/11/05 05:15:05;;;;;;;0.40;0.40;;;;;;;6.81;100.00;96101.81;5043305;28;20049;-63
2023/11/05 05:17:32;;;;;;;0.40;0.40;;;;;;;6.76;100.00;96080.91;5044388;28;20052;-61
2023/11/05 05:19:59;;;;;;;0.40;0.40;;;;;;;7.34;100.00;96145.50;5044298;28;20063;-60
2023/11/05 05:22:26;;;;;;;0.40;0.40;;;;;;;7.38;100.00;96151.84;5043807;28;20140;-64
2023/11/05 05:24:53;;;;;;;0.40;0.40;;;;;;;6.94;100.00;96081.97;5051927;28;20048;-63
2023/11/05 05:27:19;;;;;;;0.40;0.40;;;;;;;7.50;100.00;96165.44;5062666;28;20052;-61
2023/11/05 05:29:46;;;;;;;0.40;0.40;;;;;;;7.57;100.00;96160.00;5062092;28;20053;-62
2023/11/05 05:32:13;;;;;;;0.38;0.38;;;;;;;7.62;100.00;96156.94;5063673;28;20060;-63
2023/11/05 05:34:40;;;;;;;0.35;0.35;;;;;;;7.39;100.00;96131.41;5062525;28;20044;-62
2023/11/05 05:37:07;;;;;;;0.40;0.40;;;;;;;7.64;100.00;96135.31;5062112;28;20507;-63
2023/11/05 05:39:34;;;;;;;0.40;0.40;;;;;;;7.64;100.00;96127.03;5062666;28;20127;-64
2023/11/05 05:42:03;;;;;;;0.40;0.40;;;;;;;7.78;100.00;96175.25;5062407;28;20110;-62
2023/11/05 05:44:30;;;;;;;0.40;0.40;;;;;;;5.36;100.00;95792.72;5060662;28;20055;-62
2023/11/05 05:46:57;;;;;;;0.40;0.40;;;;;;;7.84;100.00;96168.25;5062123;28;20080;-62
2023/11/05 05:49:24;;;;;;;0.40;0.40;;;;;;;7.52;100.00;96112.72;5063347;28;20064;-62
2023/11/05 05:51:51;;;;;;;0.40;0.40;;;;;;;7.64;100.00;96127.03;5063354;28;20048;-62
2023/11/05 05:54:18;;;;;;;0.38;0.38;;;;;;;7.62;100.00;96118.34;5063495;28;20048;-62
2023/11/05 05:56:44;;;;;;;0.40;0.40;;;;;;;8.25;100.00;96183.78;5063396;28;20399;-62
2023/11/05 05:59:11;;;;;;;0.40;0.40;;;;;;;8.33;100.00;96183.47;5062231;28;20067;-62
2023/11/05 06:01:37;;;;;;;0.40;0.40;;;;;;;8.15;100.00;96156.81;5062949;28;20537;-63
2023/11/05 06:04:06;;;;;;;0.50;0.50;;;;;;;7.97;100.00;96161.31;5062336;28;20737;-63
2023/11/05 06:06:34;;;;;;;0.40;0.40;;;;;;;8.08;100.00;96185.09;5061842;28;20063;-62
2023/11/05 06:09:00;;;;;;;0.40;0.40;;;;;;;7.87;100.00;96184.84;5066480;28;20091;-62
2023/11/05 06:11:27;;;;;;;0.40;0.40;;;;;;;7.78;100.00;96125.66;5067082;28;20414;-64
2023/11/05 06:13:54;;;;;;;0.40;0.40;;;;;;;8.35;100.00;96177.56;5067460;28;20110;-63
2023/11/05 06:16:21;;;;;;;0.40;0.40;;;;;;;8.58;100.00;96164.44;5067608;28;20505;-62
2023/11/05 06:18:48;;;;;;;0.40;0.40;;;;;;;8.58;100.00;96150.63;5067571;28;20156;-63
2023/11/05 06:21:15;;;;;;;0.40;0.40;;;;;;;8.88;100.00;96173.41;5061160;28;20148;-62
2023/11/05 06:23:42;;;;;;;0.40;0.40;;;;;;;9.02;100.00;96162.50;5065165;28;20053;-63
2023/11/05 06:26:09;;;;;;;0.50;0.50;;;;;;;8.60;100.00;96112.41;5048734;28;20095;-62
2023/11/05 06:28:35;;;;;;;0.40;0.40;;;;;;;9.06;100.00;96174.34;5047223;28;20048;-62
2023/11/05 06:31:03;;;;;;;0.40;0.40;;;;;;;9.16;100.00;96179.19;5045512;28;20051;-62
2023/11/05 06:33:33;;;;;;;0.40;0.40;;;;;;;9.20;100.00;96174.47;5045444;28;20045;-62
2023/11/05 06:36:04;;;;;;;0.40;0.40;;;;;;;8.78;100.00;96102.31;5046537;28;20435;-64
2023/11/05 06:38:31;;;;;;;0.40;0.40;;;;;;;9.10;100.00;96131.75;5046855;28;20439;-63
2023/11/05 06:40:58;;;;;;;0.40;0.40;;;;;;;9.34;100.00;96152.50;5046774;28;20553;-62
2023/11/05 06:43:25;;;;;;;0.50;0.50;;;;;;;9.28;100.00;96107.03;5046798;28;20053;-63
2023/11/05 06:45:52;;;;;;;0.40;0.40;;;;;;;9.69;100.00;96152.69;5045131;28;20045;-63
2023/11/05 06:48:19;;;;;;;0.40;0.40;;;;;;;9.97;100.00;96150.09;5046718;28;20119;-61
2023/11/05 06:50:47;;;;;;;0.50;0.50;;;;;;;10.30;100.00;96147.13;5045915;28;20511;-63
2023/11/05 06:53:13;;;;;;;0.40;0.40;;;;;;;10.44;100.00;96138.06;5046676;28;20151;-62
2023/11/05 06:55:40;;;;;;;0.40;0.40;;;;;;;10.69;100.00;96119.50;5046357;28;20059;-64
2023/11/05 06:58:08;;;;;;;0.40;0.40;;;;;;;10.88;100.00;96184.81;5046552;28;20431;-63
2023/11/05 07:00:34;;;;;;;0.50;0.50;;;;;;;10.76;100.00;96071.66;5046285;28;20438;-64
2023/11/05 07:03:02;;;;;;;0.50;0.50;;;;;;;11.35;100.00;96102.09;5046875;28;20527;-62
2023/11/05 07:05:29;;;;;;;0.50;0.50;;;;;;;11.49;99.73;96098.53;5044894;28;20052;-62
2023/11/05 07:07:56;;;;;;;0.50;0.50;;;;;;;11.47;95.03;96106.44;5044861;28;20049;-63
2023/11/05 07:10:24;;;;;;;0.50;0.50;;;;;;;11.45;96.07;96061.69;5044566;28;20480;-64
2023/11/05 07:12:51;;;;;;;0.50;0.50;;;;;;;11.68;90.99;96100.91;5046333;28;20048;-63
2023/11/05 07:15:18;;;;;;;0.50;0.50;;;;;;;11.92;92.12;96100.00;5044771;28;20049;-64
2023/11/05 07:17:45;;;;;;;0.50;0.50;;;;;;;11.73;89.51;96042.19;5044293;28;20150;-63
2023/11/05 07:20:15;;;;;;;0.50;0.50;;;;;;;12.33;89.49;96095.47;5045541;28;20052;-63
2023/11/05 07:22:46;;;;;;;0.60;0.60;;;;;;;12.04;87.62;96096.81;5046010;28;20503;-63
2023/11/05 07:25:13;;;;;;;0.50;0.50;;;;;;;12.14;87.05;96084.84;5056069;28;20477;-63
2023/11/05 07:27:40;;;;;;;0.50;0.50;;;;;;;12.28;88.29;96168.09;5065971;28;20052;-63
2023/11/05 07:30:09;;;;;;;0.52;0.52;;;;;;;11.88;88.42;96049.28;5064376;28;20388;-63
2023/11/05 07:32:36;;;;;;;0.50;0.50;;;;;;;12.40;88.05;96075.19;5065987;28;20044;-63
2023/11/05 07:35:05;;;;;;;0.50;0.50;;;;;;;12.58;85.67;96073.91;5063629;28;20098;-63
2023/11/05 07:37:31;;;;;;;0.50;0.50;;;;;;;12.72;83.94;96075.81;5065968;28;20431;-63
2023/11/05 07:39:58;;;;;;;0.57;0.57;;;;;;;12.74;84.32;96090.84;5065074;28;20048;-64
2023/11/05 07:42:25;;;;;;;0.50;0.50;;;;;;;12.89;83.41;96070.13;5065388;28;20660;-63
2023/11/05 07:44:52;;;;;;;0.52;0.52;;;;;;;12.96;80.58;96083.94;5065739;28;20055;-63
2023/11/05 07:47:18;;;;;;;0.50;0.50;;;;;;;12.95;80.46;96079.59;5064251;28;20098;-61
2023/11/05 07:49:45;;;;;;;0.50;0.50;;;;;;;13.00;75.75;96065.28;5065275;28;20060;-61
2023/11/05 07:52:12;;;;;;;0.50;0.50;;;;;;;13.08;76.86;96066.81;5065091;28;20049;-62
2023/11/05 07:54:39;;;;;;;0.60;0.60;;;;;;;13.33;74.79;96064.59;5063690;28;20502;-63
2023/11/05 07:57:06;;;;;;;0.57;0.57;;;;;;;13.56;73.05;96095.34;5065309;28;20052;-62
2023/11/05 07:59:32;;;;;;;0.60;0.60;;;;;;;13.34;76.75;96096.75;5065209;28;20079;-63
2023/11/05 08:01:59;;;;;;;0.60;0.60;;;;;;;12.93;76.80;96048.63;5063709;28;20057;-63
2023/11/05 08:04:26;;;;;;;0.60;0.60;;;;;;;13.67;77.19;96084.91;5065067;28;20044;-61
2023/11/05 08:06:54;;;;;;;0.60;0.60;;;;;;;13.85;75.28;96065.25;5063526;28;20472;-61
2023/11/05 08:09:23;;;;;;;0.60;0.60;;;;;;;14.19;76.61;96077.16;5063488;28;20075;-61
2023/11/05 08:11:51;;;;;;;0.60;0.60;;;;;;;14.32;73.35;96071.88;5064860;28;20098;-62
2023/11/05 08:14:17;;;;;;;0.60;0.60;;;;;;;14.25;70.86;96052.44;5064706;28;20041;-62
2023/11/05 08:16:44;;;;;;;0.65;0.65;;;;;;;14.00;73.02;96024.91;5063374;28;20048;-63
2023/11/05 08:19:11;;;;;;;0.60;0.60;;;;;;;14.59;71.66;96076.25;5064891;28;20093;-64
2023/11/05 08:21:38;;;;;;;0.60;0.60;;;;;;;14.16;73.45;95982.50;5062883;28;20059;-62
2023/11/05 08:24:05;;;;;;;0.50;0.50;;;;;;;13.86;74.73;96071.59;5063892;28;20443;-62
2023/11/05 08:26:32;;;;;;;0.60;0.60;;;;;;;14.19;76.43;96062.44;5044561;28;20052;-61
2023/11/05 08:29:02;;;;;;;0.70;0.70;;;;;;;14.49;76.12;96049.34;5044563;28;20529;-65
2023/11/05 08:31:29;;;;;;;0.60;0.60;;;;;;;14.89;75.63;96056.69;5043989;28;20076;-63
2023/11/05 08:33:56;;;;;;;0.63;0.63;;;;;;;14.83;75.26;96002.59;5063971;28;20056;-68
2023/11/05 08:36:23;;;;;;;0.70;0.70;;;;;;;15.25;73.85;96040.16;5055726;28;20049;-67
2023/11/05 08:38:50;;;;;;;0.68;0.68;;;;;;;15.20;72.34;96032.28;5061108;28;20056;-66
2023/11/05 08:41:17;;;;;;;0.60;0.60;;;;;;;14.53;74.86;96026.97;5063412;28;20048;-65
2023/11/05 08:43:43;;;;;;;0.60;0.60;;;;;;;14.41;79.32;96010.84;5064440;28;20616;-66
2023/11/05 08:46:10;;;;;;;0.60;0.60;;;;;;;14.26;80.53;95989.94;5064627;28;20057;-67
2023/11/05 08:48:37;;;;;;;0.60;0.60;;;;;;;14.26;80.10;95987.16;5062935;28;20059;-66
2023/11/05 08:51:04;;;;;;;0.52;0.52;;;;;;;13.86;81.85;95965.81;5063903;28;20474;-66
2023/11/05 08:53:30;;;;;;;0.60;0.60;;;;;;;14.12;82.25;96006.81;5063850;28;20118;-67
2023/11/05 08:55:57;;;;;;;0.60;0.60;;;;;;;13.97;81.88;95955.34;5064004;28;20526;-66
2023/11/05 08:58:24;;;;;;;0.60;0.60;;;;;;;13.59;81.90;95819.06;5064088;28;20113;-68
2023/11/05 09:00:55;;;;;;;0.60;0.60;;;;;;;15.00;81.10;95989.59;5062797;28;20080;-66
2023/11/05 09:03:26;;;;;;;0.60;0.60;;;;;;;15.32;82.25;95987.00;5063939;28;20511;-68
2023/11/05 09:05:54;;;;;;;0.60;0.60;;;;;;;15.58;76.02;95974.19;5064421;28;20076;-67
2023/11/05 09:08:22;;;;;;;0.60;0.60;;;;;;;15.75;77.85;95973.84;5062734;28;20052;-68
2023/11/05 09:10:49;;;;;;;0.60;0.60;;;;;;;15.84;75.69;95932.16;5063599;28;20048;-68
2023/11/05 09:13:16;;;;;;;0.70;0.70;;;;;;;15.99;69.67;95980.94;5062719;28;20070;-69
2023/11/05 09:15:43;;;;;;;0.60;0.60;;;;;;;16.25;69.95;95979.94;5063974;28;20072;-67
2023/11/05 09:18:11;;;;;;;0.60;0.60;;;;;;;16.50;70.51;95969.00;5063943;28;20102;-67
2023/11/05 09:20:39;;;;;;;0.70;0.70;;;;;;;16.34;70.69;95940.25;5064001;28;20049;-67
2023/11/05 09:23:05;;;;;;;0.65;0.65;;;;;;;16.26;71.14;95953.59;5063765;28;20055;-67
2023/11/05 09:25:32;;;;;;;0.70;0.70;;;;;;;16.44;71.15;95944.78;5062303;28;20049;-66
2023/11/05 09:28:00;;;;;;;0.60;0.60;;;;;;;16.60;71.81;95931.63;5063791;28;20507;-67
2023/11/05 09:30:26;;;;;;;0.70;0.70;;;;;;;16.81;71.38;95932.31;5063877;28;20102;-67
2023/11/05 09:32:53;;;;;;;0.70;0.70;;;;;;;16.72;71.27;95934.97;5064248;28;20053;-67
2023/11/05 09:35:20;;;;;;;0.70;0.70;;;;;;;16.71;73.24;95933.41;5063439;28;20060;-67
2023/11/05 09:37:47;;;;;;;0.70;0.70;;;;;;;17.37;70.23;95936.47;5064070;28;20052;-66
2023/11/05 09:40:15;;;;;;;0.70;0.70;;;;;;;17.20;66.63;95904.16;5063793;28;20450;-68
2023/11/05 09:43:01;;;;;;;0.70;0.70;;;;;;;17.69;65.36;95914.75;5065675;28;20052;-67
2023/11/05 09:45:33;;;;;;;0.70;0.70;;;;;;;17.74;63.88;95924.63;5067716;28;20147;-66
2023/11/05 09:48:13;;;;;;;0.70;0.70;;;;;;;16.95;67.57;95864.81;5067553;28;20088;-65
2023/11/05 09:50:41;;;;;;;0.70;0.70;;;;;;;17.10;65.44;95835.25;5067102;28;20438;-64
2023/11/05 09:53:10;;;;;;;0.70;0.70;;;;;;;17.45;69.98;95898.69;5066261;28;20130;-66
2023/11/05 09:55:39;;;;;;;0.70;0.70;;;;;;;16.90;68.42;95912.94;5067599;28;20510;-65
2023/11/05 09:58:06;;;;;;;0.60;0.60;;;;;;;17.05;67.76;95894.53;5067473;28;20070;-64
2023/11/05 10:00:33;;;;;;;0.77;0.77;;;;;;;17.56;70.46;95871.16;5065568;28;20425;-65
2023/11/05 10:03:08;;;;;;;0.65;0.65;;;;;;;17.98;63.48;95881.09;5067265;28;20048;-65
2023/11/05 10:05:42;;;;;;;0.70;0.70;;;;;;;18.17;61.67;95882.91;5065734;28;20052;-65
2023/11/05 10:08:10;;;;;;;0.70;0.70;;;;;;;17.99;62.41;95815.41;5067389;28;20060;-66
2023/11/05 10:10:41;;;;;;;0.70;0.70;;;;;;;18.14;61.22;95816.53;5066927;28;20510;-64
2023/11/05 10:13:08;;;;;;;0.70;0.70;;;;;;;17.70;60.27;95821.09;5067520;28;20052;-65
2023/11/05 10:15:36;;;;;;;0.70;0.70;;;;;;;17.76;60.33;95863.34;5067040;28;20052;-64
2023/11/05 10:18:04;;;;;;;0.70;0.70;;;;;;;18.27;59.82;95870.56;5066912;28;20083;-66
2023/11/05 10:20:31;;;;;;;0.70;0.70;;;;;;;18.74;57.02;95865.84;5067394;28;20052;-65
2023/11/05 10:23:01;;;;;;;0.80;0.80;;;;;;;18.74;54.76;95832.19;5067071;28;20514;-65
2023/11/05 10:25:28;;;;;;;0.80;0.80;;;;;;;18.98;56.83;95824.91;5065403;28;20080;-66
2023/11/05 10:27:57;;;;;;;0.70;0.70;;;;;;;19.46;52.79;95863.69;5065348;28;20056;-65
2023/11/05 10:30:26;;;;;;;0.80;0.80;;;;;;;19.61;54.96;95863.19;5066827;28;20059;-65
2023/11/05 10:32:53;;;;;;;0.75;0.75;;;;;;;19.90;55.45;95866.50;5066690;28;20511;-66
2023/11/05 10:35:28;;;;;;;0.80;0.80;;;;;;;19.80;51.19;95864.88;5065968;28;20056;-63
2023/11/05 10:37:56;;;;;;;0.80;0.80;;;;;;;19.92;53.48;95847.13;5065322;28;20229;-65
2023/11/05 10:40:25;;;;;;;0.80;0.80;;;;;;;20.11;52.83;95843.16;5065328;28;20511;-64
2023/11/05 10:42:52;;;;;;;0.90;0.90;;;;;;;19.99;53.38;95830.78;5067093;28;20059;-64
2023/11/05 10:45:23;;;;;;;0.80;0.80;;;;;;;20.22;54.50;95816.22;5066482;28;20079;-65
2023/11/05 10:47:52;;;;;;;0.85;0.85;;;;;;;20.23;50.89;95794.53;5065455;28;20055;-66
2023/11/05 10:50:25;;;;;;;0.90;0.90;;;;;;;20.55;49.12;95822.13;5066343;28;20063;-65
2023/11/05 10:52:54;;;;;;;0.90;0.90;;;;;;;20.24;49.27;95756.72;5066143;28;20049;-65
2023/11/05 10:55:34;;;;;;;0.90;0.90;;;;;;;20.76;47.91;95813.56;5065123;28;20084;-67
2023/11/05 10:58:03;;;;;;;0.80;0.80;;;;;;;20.56;47.75;95809.63;5066849;28;20060;-64
2023/11/05 11:00:51;;;;;;;0.90;0.90;;;;;;;20.15;50.94;95742.63;5053501;28;20060;-64
2023/11/05 11:03:19;;;;;;;0.90;0.90;;;;;;;20.51;48.40;95793.34;5046070;28;20044;-65
2023/11/05 11:05:46;;;;;;;0.90;0.90;;;;;;;20.59;43.14;95789.78;5046141;28;20081;-65
2023/11/05 11:08:16;;;;;;;0.90;0.90;;;;;;;20.45;43.30;95789.59;5046123;28;20142;-65
2023/11/05 11:10:48;;;;;;;0.80;0.80;;;;;;;20.34;43.42;95792.84;5044053;28;20480;-65
2023/11/05 11:13:17;;;;;;;0.90;0.90;;;;;;;20.06;43.00;95774.25;5044769;28;20045;-65
2023/11/05 11:15:51;;;;;;;0.88;0.88;;;;;;;19.90;44.46;95770.94;5045815;28;20307;-64
2023/11/05 11:18:20;;;;;;;0.80;0.80;;;;;;;19.71;43.43;95744.00;5045539;28;20484;-65
2023/11/05 11:20:53;;;;;;;0.80;0.80;;;;;;;19.40;43.81;95687.81;5046144;28;20048;-65
2023/11/05 11:23:21;;;;;;;0.80;0.80;;;;;;;19.72;44.17;95745.53;5060623;28;20128;-67
2023/11/05 11:26:00;;;;;;;0.90;0.90;;;;;;;19.59;45.16;95745.66;5058972;28;20052;-64
2023/11/05 11:28:32;;;;;;;0.80;0.80;;;;;;;19.49;44.93;95736.38;5064520;28;20061;-65
2023/11/05 11:31:00;;;;;;;0.80;0.80;;;;;;;19.34;46.02;95746.59;5063929;28;20111;-64
2023/11/05 11:33:28;;;;;;;0.70;0.70;;;;;;;19.21;45.45;95743.06;5065124;28;20446;-64
2023/11/05 11:35:55;;;;;;;0.80;0.80;;;;;;;19.06;45.53;95708.31;5063971;28;20132;-65